createdAt,value
2022-08-20T00:00:31.948Z,101643.88
2022-08-20T00:03:25.621Z,101621.00
2022-08-20T00:06:18.649Z,101655.66
2022-08-20T00:09:06.609Z,101649.53
2022-08-20T00:11:54.619Z,101646.69
2022-08-20T00:14:41.511Z,101643.13
2022-08-20T00:17:28.517Z,101647.66
2022-08-20T00:20:15.429Z,101644.13
2022-08-20T00:23:03.719Z,101644.13
2022-08-20T00:25:55.168Z,101647.78
2022-08-20T00:28:42.248Z,101661.31
2022-08-20T00:31:32.470Z,101649.66
2022-08-20T00:34:19.454Z,101656.25
2022-08-20T00:37:06.482Z,101675.06
2022-08-20T00:39:53.459Z,101666.97
2022-08-20T00:42:40.496Z,101664.25
2022-08-20T00:45:29.502Z,101666.97
2022-08-20T00:48:16.895Z,101681.34
2022-08-20T00:51:03.930Z,101676.06
2022-08-20T00:53:50.899Z,101669.19
2022-08-20T00:56:38.620Z,101674.59
2022-08-20T00:59:29.131Z,101673.84
2022-08-20T01:02:16.793Z,101679.38
2022-08-20T01:05:04.927Z,101677.66
2022-08-20T01:07:58.015Z,101674.19
2022-08-20T01:10:49.526Z,101661.66
2022-08-20T01:13:41.281Z,101668.16
2022-08-20T01:16:47.341Z,101673.69
2022-08-20T01:19:37.325Z,101669.38
2022-08-20T01:22:26.489Z,101676.75
2022-08-20T01:25:22.617Z,101662.59
2022-08-20T01:28:12.141Z,101672.44
2022-08-20T01:30:59.561Z,101673.41
2022-08-20T01:33:46.598Z,101675.28
2022-08-20T01:36:36.453Z,101670.00
2022-08-20T01:39:26.590Z,101660.00
2022-08-20T01:42:35.321Z,101658.31
2022-08-20T01:45:22.332Z,101644.41
2022-08-20T01:47:54.970Z,101657.56
2022-08-20T01:50:47.680Z,101656.59
2022-08-20T01:53:44.755Z,101664.72
2022-08-20T01:56:35.036Z,101659.78
2022-08-20T01:59:25.601Z,101653.91
2022-08-20T02:02:13.771Z,101642.22
2022-08-20T02:05:01.553Z,101644.78
2022-08-20T02:07:48.625Z,101602.38
2022-08-20T02:10:38.492Z,101641.09
2022-08-20T02:13:25.407Z,101641.97
2022-08-20T02:16:32.480Z,101622.19
2022-08-20T02:19:25.129Z,101631.66
2022-08-20T02:22:16.950Z,101647.25
2022-08-20T02:25:04.250Z,101654.50
2022-08-20T02:27:51.896Z,101649.09
2022-08-20T02:30:42.672Z,101648.13
2022-08-20T02:33:32.514Z,101645.41
2022-08-20T02:36:19.432Z,101628.31
2022-08-20T02:39:06.773Z,101632.88
2022-08-20T02:41:59.109Z,101636.44
2022-08-20T02:44:46.314Z,101631.16
2022-08-20T02:47:33.186Z,101624.88
2022-08-20T02:50:20.450Z,101620.34
2022-08-20T02:53:07.693Z,101620.34
2022-08-20T02:55:54.789Z,101595.97
2022-08-20T02:58:42.116Z,101615.81
2022-08-20T03:01:31.666Z,101612.97
2022-08-20T03:04:21.561Z,101611.25
2022-08-20T03:07:13.296Z,101604.13
2022-08-20T03:10:01.525Z,101599.97
2022-08-20T03:12:48.519Z,101596.13
2022-08-20T03:15:35.697Z,101576.47
2022-08-20T03:18:24.581Z,101591.97
2022-08-20T03:21:11.849Z,101618.25
2022-08-20T03:24:02.233Z,101602.03
2022-08-20T03:26:49.214Z,101589.50
2022-08-20T03:29:37.320Z,101596.75
2022-08-20T03:32:24.562Z,101606.69
2022-08-20T03:35:13.548Z,101604.00
2022-08-20T03:38:01.429Z,101558.03
2022-08-20T03:40:52.317Z,101588.63
2022-08-20T03:43:39.320Z,101597.63
2022-08-20T03:46:26.427Z,101602.91
2022-08-20T03:49:14.476Z,101582.13
2022-08-20T03:52:01.496Z,101600.06
2022-08-20T03:54:48.413Z,101605.38
2022-08-20T03:57:36.639Z,101599.97
2022-08-20T04:00:24.937Z,101587.16
2022-08-20T04:03:12.012Z,101572.69
2022-08-20T04:06:00.464Z,101567.16
2022-08-20T04:08:52.238Z,101573.16
2022-08-20T04:11:39.396Z,101573.91
2022-08-20T04:14:26.384Z,101570.06
2022-08-20T04:17:16.240Z,101553.88
2022-08-20T04:20:04.100Z,101566.28
2022-08-20T04:22:58.655Z,101574.28
2022-08-20T04:25:48.552Z,101570.56
2022-08-20T04:28:43.720Z,101576.75
2022-08-20T04:31:30.809Z,101573.94
2022-08-20T04:34:17.726Z,101601.72
2022-08-20T04:37:17.334Z,101605.13
2022-08-20T04:40:04.580Z,101508.25
2022-08-20T04:42:53.203Z,101551.78
2022-08-20T04:45:41.036Z,101534.69
2022-08-20T04:48:28.031Z,101559.78
2022-08-20T04:51:16.291Z,101561.50
2022-08-20T04:54:03.353Z,101563.94
2022-08-20T04:56:53.362Z,101563.94
2022-08-20T04:59:40.496Z,101589.66
2022-08-20T05:02:27.446Z,101596.66
2022-08-20T05:05:14.901Z,101622.56
2022-08-20T05:08:20.061Z,101621.47
2022-08-20T05:11:33.548Z,101615.19
2022-08-20T05:14:14.566Z,101580.91
2022-08-20T05:17:01.773Z,101592.09
2022-08-20T05:19:48.661Z,101615.44
2022-08-20T05:22:35.808Z,101616.19
2022-08-20T05:25:23.788Z,101602.91
2022-08-20T05:28:17.372Z,101603.13
2022-08-20T05:31:06.248Z,101591.91
2022-08-20T05:33:53.417Z,101583.56
2022-08-20T05:36:40.317Z,101595.84
2022-08-20T05:39:27.893Z,101552.84
2022-08-20T05:42:14.875Z,101566.81
2022-08-20T05:45:01.945Z,101565.47
2022-08-20T05:47:55.440Z,101565.47
2022-08-20T05:50:44.546Z,101572.19
2022-08-20T05:53:32.373Z,101567.50
2022-08-20T05:56:19.394Z,101566.25
2022-08-20T05:59:13.546Z,101563.28
2022-08-20T06:02:01.536Z,101554.06
2022-08-20T06:04:48.600Z,101543.03
2022-08-20T06:07:43.638Z,101564.38
2022-08-20T06:10:30.597Z,101550.63
2022-08-20T06:13:17.696Z,101549.34
2022-08-20T06:16:06.885Z,101554.38
2022-08-20T06:18:54.088Z,101562.97
2022-08-20T06:21:45.317Z,101572.69
2022-08-20T06:24:32.335Z,101572.28
2022-08-20T06:27:21.201Z,101581.88
2022-08-20T06:30:08.982Z,101578.91
2022-08-20T06:32:56.064Z,101574.94
2022-08-20T06:35:43.368Z,101570.00
2022-08-20T06:38:32.185Z,101573.19
2022-08-20T06:41:19.291Z,101575.63
2022-08-20T06:44:06.307Z,101558.09
2022-08-20T06:46:54.764Z,101539.06
2022-08-20T06:49:41.729Z,101565.44
2022-08-20T06:52:09.492Z,101562.44
2022-08-20T06:54:58.694Z,101555.75
2022-08-20T06:57:45.617Z,101554.50
2022-08-20T07:00:36.651Z,101549.69
2022-08-20T07:03:24.930Z,101545.56
2022-08-20T07:06:11.859Z,101555.03
2022-08-20T07:09:00.092Z,101542.94
2022-08-20T07:11:47.157Z,101543.50
2022-08-20T07:14:35.702Z,101551.25
2022-08-20T07:17:24.302Z,101544.56
2022-08-20T07:20:11.509Z,101556.72
2022-08-20T07:22:58.674Z,101551.00
2022-08-20T07:25:46.176Z,101542.31
2022-08-20T07:28:44.957Z,101536.63
2022-08-20T07:31:31.494Z,101546.63
2022-08-20T07:34:19.597Z,101547.69
2022-08-20T07:37:06.910Z,101521.09
2022-08-20T07:39:53.901Z,101528.84
2022-08-20T07:42:41.020Z,101531.56
2022-08-20T07:45:31.609Z,101522.00
2022-08-20T07:48:31.729Z,101527.88
2022-08-20T07:51:21.945Z,101526.34
2022-08-20T07:54:10.202Z,101525.78
2022-08-20T07:56:57.388Z,101527.06
2022-08-20T07:59:44.367Z,101534.63
2022-08-20T08:02:32.214Z,101525.22
2022-08-20T08:05:19.434Z,101532.78
2022-08-20T08:08:07.430Z,101532.22
2022-08-20T08:10:54.632Z,101531.63
2022-08-20T08:13:51.104Z,101527.47
2022-08-20T08:16:38.183Z,101528.78
2022-08-20T08:19:28.876Z,101521.03
2022-08-20T08:22:16.688Z,101507.56
2022-08-20T08:25:04.975Z,101517.31
2022-08-20T08:27:54.718Z,101515.03
2022-08-20T08:30:41.574Z,101509.13
2022-08-20T08:33:47.548Z,101510.44
2022-08-20T08:36:36.127Z,101506.41
2022-08-20T08:39:23.240Z,101513.09
2022-08-20T08:42:14.251Z,101515.41
2022-08-20T08:45:02.101Z,101505.38
2022-08-20T08:47:52.945Z,101511.63
2022-08-20T08:50:59.878Z,101510.31
2022-08-20T08:53:52.128Z,101511.56
2022-08-20T08:56:40.473Z,101509.41
2022-08-20T08:59:28.781Z,101492.81
2022-08-20T09:02:41.644Z,101485.34
2022-08-20T09:05:40.702Z,101494.00
2022-08-20T09:08:30.814Z,101471.44
2022-08-20T09:11:25.963Z,101497.44
2022-08-20T09:14:16.304Z,101491.38
2022-08-20T09:17:03.285Z,101462.06
2022-08-20T09:19:50.606Z,101496.47
2022-08-20T09:22:40.636Z,101485.94
2022-08-20T09:25:28.144Z,101490.09
2022-08-20T09:28:15.033Z,101495.06
2022-08-20T09:31:02.914Z,101493.44
2022-08-20T09:33:51.500Z,101471.50
2022-08-20T09:36:38.768Z,101481.28
2022-08-20T09:39:25.725Z,101480.66
2022-08-20T09:42:12.747Z,101484.66
2022-08-20T09:45:00.177Z,101493.63
2022-08-20T09:47:55.015Z,101471.50
2022-08-20T09:50:45.637Z,101473.25
2022-08-20T09:53:33.537Z,101478.53
2022-08-20T09:56:20.469Z,101480.22
2022-08-20T09:59:11.156Z,101469.00
2022-08-20T10:01:58.035Z,101478.72
2022-08-20T10:04:45.347Z,101478.72
2022-08-20T10:07:33.323Z,101481.28
2022-08-20T10:10:20.950Z,101469.41
2022-08-20T10:12:51.594Z,101464.63
2022-08-20T10:15:21.536Z,101475.38
2022-08-20T10:17:48.580Z,101469.59
2022-08-20T10:20:16.186Z,101450.84
2022-08-20T10:22:43.412Z,101460.09
2022-08-20T10:25:10.887Z,101458.59
2022-08-20T10:27:40.464Z,101445.13
2022-08-20T10:30:28.592Z,101452.88
2022-08-20T10:33:15.661Z,101458.88
2022-08-20T10:36:02.685Z,101429.00
2022-08-20T10:38:49.505Z,101450.56
2022-08-20T10:41:39.050Z,101457.81
2022-08-20T10:44:27.191Z,101454.31
2022-08-20T10:47:14.271Z,101441.72
2022-08-20T10:50:01.240Z,101441.72
2022-08-20T10:52:49.502Z,101440.41
2022-08-20T10:55:36.618Z,101444.31
2022-08-20T10:58:26.981Z,101444.88
2022-08-20T11:01:32.796Z,101430.22
2022-08-20T11:04:21.012Z,101430.38
2022-08-20T11:07:07.936Z,101432.47
2022-08-20T11:09:55.297Z,101432.66
2022-08-20T11:12:44.805Z,101436.75
2022-08-20T11:15:34.654Z,101438.47
2022-08-20T11:18:21.693Z,101435.91
2022-08-20T11:21:08.959Z,101432.50
2022-08-20T11:23:57.429Z,101427.38
2022-08-20T11:26:46.910Z,101434.19
2022-08-20T11:29:34.597Z,101420.88
2022-08-20T11:32:21.780Z,101424.09
2022-08-20T11:35:38.407Z,101425.25
2022-08-20T11:38:17.182Z,101423.03
2022-08-20T11:41:04.665Z,101407.84
2022-08-20T11:44:17.486Z,101415.75
2022-08-20T11:46:58.870Z,101418.31
2022-08-20T11:49:46.010Z,101424.31
2022-08-20T11:52:33.145Z,101423.28
2022-08-20T11:55:21.073Z,101413.44
2022-08-20T11:58:16.924Z,101416.69
2022-08-20T12:01:04.121Z,101409.88
2022-08-20T12:03:51.087Z,101408.03
2022-08-20T12:06:38.123Z,101401.00
2022-08-20T12:09:25.073Z,101407.88
2022-08-20T12:12:12.264Z,101401.03
2022-08-20T12:15:01.230Z,101368.06
2022-08-20T12:17:51.072Z,101395.91
2022-08-20T12:20:38.025Z,101403.78
2022-08-20T12:23:25.392Z,101386.00
2022-08-20T12:26:12.301Z,101383.59
2022-08-20T12:28:59.412Z,101386.69
2022-08-20T12:31:46.266Z,101391.28
2022-08-20T12:34:33.244Z,101358.00
2022-08-20T12:37:25.888Z,101387.31
2022-08-20T12:40:15.627Z,101380.00
2022-08-20T12:43:02.646Z,101376.91
2022-08-20T12:45:51.153Z,101378.75
2022-08-20T12:48:38.188Z,101380.44
2022-08-20T12:51:25.261Z,101378.22
2022-08-20T12:54:12.113Z,101376.88
2022-08-20T12:56:59.300Z,101368.50
2022-08-20T12:59:47.429Z,101379.63
2022-08-20T13:02:34.496Z,101364.09
2022-08-20T13:05:21.603Z,101369.56
2022-08-20T13:08:09.500Z,101364.44
2022-08-20T13:11:03.806Z,101344.78
2022-08-20T13:13:52.124Z,101364.47
2022-08-20T13:16:39.356Z,101353.88
2022-08-20T13:19:26.401Z,101359.56
2022-08-20T13:22:14.475Z,101356.09
2022-08-20T13:25:02.376Z,101352.03
2022-08-20T13:27:49.514Z,101344.34
2022-08-20T13:30:39.713Z,101346.41
2022-08-20T13:33:26.761Z,101333.25
2022-08-20T13:36:13.992Z,101317.13
2022-08-20T13:39:00.853Z,101340.19
2022-08-20T13:41:27.993Z,101339.16
2022-08-20T13:44:14.973Z,101331.81
2022-08-20T13:47:02.350Z,101327.88
2022-08-20T13:49:49.340Z,101337.75
2022-08-20T13:52:36.337Z,101331.75
2022-08-20T13:55:25.702Z,101328.84
2022-08-20T13:58:13.450Z,101324.53
2022-08-20T14:01:00.607Z,101328.63
2022-08-20T14:03:47.689Z,101324.63
2022-08-20T14:06:34.541Z,101320.53
2022-08-20T14:09:21.738Z,101319.84
2022-08-20T14:12:08.807Z,101316.78
2022-08-20T14:14:56.016Z,101324.09
2022-08-20T14:17:44.905Z,101322.72
2022-08-20T14:20:38.656Z,101312.31
2022-08-20T14:23:26.053Z,101321.81
2022-08-20T14:26:13.193Z,101316.84
2022-08-20T14:29:00.176Z,101318.38
2022-08-20T14:31:47.306Z,101321.44
2022-08-20T14:34:34.245Z,101301.41
2022-08-20T14:37:33.246Z,101324.59
2022-08-20T14:40:22.570Z,101324.22
2022-08-20T14:43:10.201Z,101323.81
2022-08-20T14:45:57.247Z,101316.31
2022-08-20T14:48:44.307Z,101314.75
2022-08-20T14:51:31.221Z,101314.19
2022-08-20T14:54:18.209Z,101311.63
2022-08-20T14:57:05.116Z,101310.09
2022-08-20T15:00:00.606Z,101313.13
2022-08-20T15:02:47.741Z,101299.13
2022-08-20T15:05:39.258Z,101302.19
2022-08-20T15:08:28.784Z,101305.22
2022-08-20T15:11:16.080Z,101296.66
2022-08-20T15:14:03.084Z,101301.91
2022-08-20T15:16:50.314Z,101308.34
2022-08-20T15:19:37.185Z,101303.22
2022-08-20T15:22:24.412Z,101300.81
2022-08-20T15:25:11.445Z,101303.19
2022-08-20T15:28:00.724Z,101305.38
2022-08-20T15:30:50.268Z,101297.34
2022-08-20T15:33:37.344Z,101301.09
2022-08-20T15:36:26.829Z,101291.19
2022-08-20T15:39:13.937Z,101286.78
2022-08-20T15:42:00.804Z,101287.78
2022-08-20T15:44:47.899Z,101288.81
2022-08-20T15:47:41.325Z,101284.38
2022-08-20T15:50:38.364Z,101273.50
2022-08-20T15:53:31.979Z,101265.34
2022-08-20T15:56:43.937Z,101264.63
2022-08-20T15:59:45.691Z,101269.19
2022-08-20T16:03:10.295Z,101270.38
2022-08-20T16:06:04.510Z,101260.38
2022-08-20T16:09:11.446Z,101264.06
2022-08-20T16:12:11.583Z,101260.69
2022-08-20T16:15:01.872Z,101263.72
2022-08-20T16:18:00.860Z,101262.59
2022-08-20T16:21:03.921Z,101276.91
2022-08-20T16:23:58.195Z,101280.78
2022-08-20T16:27:17.746Z,101279.38
2022-08-20T16:30:20.794Z,101279.00
2022-08-20T16:33:20.050Z,101260.84
2022-08-20T16:36:14.284Z,101276.22
2022-08-20T16:39:33.428Z,101280.69
2022-08-20T16:42:23.742Z,101280.38
2022-08-20T16:45:14.733Z,101249.63
